Time;durP1;ratioP1;P1;durP2;ratioP2;P2;SDS_P1;SDS_P2;PMS_P1;PMS_P2;Temp;Humidity;BMP_temperature;BMP_pressure;BME280_temperature;BME280_humidity;BME280_pressure;Samples;Min_cycle;Max_cycle;Signal;HPM_P1;HPM_P2
2021/04/16 00:03:14;;;;;;;7.50;3.50;;;5.20;60.00;;;;;;5102255;28;27335;-60
2021/04/16 00:06:19;;;;;;;6.10;3.15;;;5.30;60.00;;;;;;5105638;28;27348;-60
2021/04/16 00:09:24;;;;;;;6.60;3.88;;;5.30;59.90;;;;;;5105416;28;27336;-60
2021/04/16 00:12:46;;;;;;;4.97;3.20;;;5.30;60.60;;;;;;5105364;28;27465;-58
2021/04/16 00:16:08;;;;;;;8.20;3.22;;;5.30;59.80;;;;;;5104813;28;27342;-57
2021/04/16 00:19:36;;;;;;;6.38;3.95;;;5.30;59.60;;;;;;5104855;28;27601;-59
2021/04/16 00:22:46;;;;;;;4.00;2.75;;;5.30;59.70;;;;;;5104599;28;27381;-59
2021/04/16 00:26:15;;;;;;;4.80;2.75;;;5.40;59.50;;;;;;5101529;28;27426;-58
2021/04/16 00:29:34;;;;;;;8.00;3.17;;;5.40;59.40;;;;;;5104328;27;27538;-59
2021/04/16 00:32:50;;;;;;;5.22;3.00;;;5.40;59.30;;;;;;5101213;28;27360;-58
2021/04/16 00:36:06;;;;;;;4.88;2.90;;;5.40;59.30;;;;;;5104823;28;27466;-58
2021/04/16 00:39:11;;;;;;;4.75;2.72;;;5.40;59.30;;;;;;5104524;28;27473;-59
2021/04/16 00:42:36;;;;;;;4.03;2.42;;;5.40;59.10;;;;;;5104584;28;27403;-59
2021/04/16 00:45:50;;;;;;;3.85;2.55;;;5.50;59.10;;;;;;5103733;28;27471;-59
2021/04/16 00:49:18;;;;;;;7.55;2.72;;;5.50;59.00;;;;;;5103798;28;27477;-58
2021/04/16 00:52:59;;;;;;;4.65;2.40;;;5.50;59.00;;;;;;5104249;28;27451;-60
2021/04/16 00:56:28;;;;;;;3.65;2.53;;;5.50;58.90;;;;;;5104497;28;27342;-59
2021/04/16 00:59:30;;;;;;;3.67;2.33;;;5.50;58.90;;;;;;5104481;28;27418;-58
2021/04/16 01:02:32;;;;;;;6.13;2.50;;;5.50;58.80;;;;;;5103583;28;27502;-58
2021/04/16 01:05:47;;;;;;;3.15;2.20;;;5.50;58.90;;;;;;5100148;28;27345;-58
2021/04/16 01:09:18;;;;;;;4.65;2.40;;;5.50;59.10;;;;;;5101139;28;27415;-58
2021/04/16 01:12:26;;;;;;;4.22;2.35;;;5.40;59.20;;;;;;5104590;28;27450;-58
2021/04/16 01:15:26;;;;;;;3.25;2.60;;;5.30;59.20;;;;;;5104247;28;27422;-58
2021/04/16 01:18:45;;;;;;;6.00;2.88;;;5.30;59.40;;;;;;5103082;28;27417;-58
2021/04/16 01:22:04;;;;;;;4.05;3.08;;;5.30;59.50;;;;;;5103208;28;27534;-58
2021/04/16 01:25:32;;;;;;;4.30;3.22;;;5.20;59.60;;;;;;5103447;28;27337;-59
2021/04/16 01:28:55;;;;;;;5.13;2.60;;;5.10;59.70;;;;;;5100670;28;27351;-59
2021/04/16 01:32:23;;;;;;;4.50;2.58;;;5.10;59.80;;;;;;5085801;28;27950;-58
2021/04/16 01:36:11;;;;;;;6.80;2.97;;;5.10;59.90;;;;;;5104068;28;27403;-58
2021/04/16 01:39:33;;;;;;;11.57;3.08;;;5.00;60.10;;;;;;5102642;28;27350;-58
2021/04/16 01:42:42;;;;;;;5.07;3.17;;;4.90;60.20;;;;;;5102290;28;27426;-58
2021/04/16 01:45:48;;;;;;;6.95;3.42;;;4.90;60.30;;;;;;5101333;27;27596;-58
2021/04/16 01:48:58;;;;;;;5.47;2.90;;;4.80;60.30;;;;;;5101759;28;27403;-58
2021/04/16 01:52:04;;;;;;;4.03;2.83;;;4.80;60.50;;;;;;5103193;28;27426;-59
2021/04/16 01:55:09;;;;;;;4.38;2.63;;;4.70;60.70;;;;;;5103617;28;27442;-58
2021/04/16 01:58:34;;;;;;;4.80;3.30;;;4.70;60.80;;;;;;5103350;28;27946;-58
2021/04/16 02:01:48;;;;;;;4.55;2.63;;;4.60;60.80;;;;;;5103428;28;27395;-58
2021/04/16 02:05:10;;;;;;;5.13;3.15;;;4.60;60.90;;;;;;5121922;27;27592;-58
2021/04/16 02:08:22;;;;;;;5.55;3.03;;;4.60;60.90;;;;;;5122393;27;27491;-58
2021/04/16 02:11:29;;;;;;;5.30;2.83;;;4.50;61.00;;;;;;5120633;27;27426;-58
2021/04/16 02:14:35;;;;;;;6.65;2.63;;;4.50;61.10;;;;;;5121799;27;27455;-60
2021/04/16 02:17:49;;;;;;;4.78;3.13;;;4.40;61.30;;;;;;5122261;27;27447;-60
2021/04/16 02:21:02;;;;;;;4.20;3.08;;;4.40;61.40;;;;;;5121384;27;27464;-60
2021/04/16 02:24:17;;;;;;;6.13;3.10;;;4.40;62.10;;;;;;5122270;27;27428;-59
2021/04/16 02:27:30;;;;;;;6.65;3.35;;;4.40;61.40;;;;;;5118977;27;27464;-60
2021/04/16 02:30:57;;;;;;;3.72;2.55;;;4.30;61.40;;;;;;5122286;27;27448;-58
2021/04/16 02:34:09;;;;;;;6.45;3.30;;;4.30;61.60;;;;;;5121546;27;27667;-60
2021/04/16 02:36:58;;;;;;;6.13;3.47;;;4.30;61.60;;;;;;5120612;27;27451;-59
2021/04/16 02:40:12;;;;;;;5.28;3.25;;;4.30;61.60;;;;;;5106659;27;27446;-59
2021/04/16 02:43:12;;;;;;;4.43;3.67;;;4.20;61.60;;;;;;5098848;28;27371;-58
2021/04/16 02:46:12;;;;;;;7.07;4.03;;;4.20;61.60;;;;;;5087921;28;27505;-59
2021/04/16 02:49:33;;;;;;;8.27;3.72;;;4.20;61.60;;;;;;5102784;28;27399;-59
2021/04/16 02:52:47;;;;;;;13.93;4.43;;;4.20;61.60;;;;;;5102855;28;27450;-56
2021/04/16 02:56:08;;;;;;;6.22;4.20;;;4.10;61.80;;;;;;5100875;28;27410;-58
2021/04/16 02:59:22;;;;;;;8.05;4.72;;;4.20;61.80;;;;;;5106600;28;27399;-60
2021/04/16 03:02:21;;;;;;;7.10;3.83;;;4.10;61.60;;;;;;5104841;28;27305;-59
2021/04/16 03:05:28;;;;;;;5.93;3.75;;;4.10;61.70;;;;;;5106369;28;27419;-58
2021/04/16 03:08:42;;;;;;;5.68;3.78;;;4.10;61.60;;;;;;5105951;28;27474;-58
2021/04/16 03:11:52;;;;;;;6.50;4.15;;;4.10;61.80;;;;;;5106370;28;27477;-58
2021/04/16 03:15:14;;;;;;;6.30;4.30;;;4.00;61.70;;;;;;5104692;28;27412;-58
2021/04/16 03:18:00;;;;;;;7.18;4.47;;;4.00;61.80;;;;;;5106117;28;27544;-60
2021/04/16 03:21:08;;;;;;;7.32;4.82;;;4.00;61.60;;;;;;5090076;28;27533;-58
2021/04/16 03:24:21;;;;;;;5.53;4.32;;;3.90;61.80;;;;;;5105338;28;27382;-57
2021/04/16 03:27:21;;;;;;;5.43;4.00;;;3.90;61.70;;;;;;5105950;28;27373;-58
2021/04/16 03:30:47;;;;;;;7.40;4.72;;;3.90;61.90;;;;;;5105861;28;27442;-59
2021/04/16 03:34:01;;;;;;;5.75;4.30;;;3.90;61.80;;;;;;5105901;28;27426;-58
2021/04/16 03:37:02;;;;;;;6.88;4.80;;;3.90;61.90;;;;;;5105833;28;27469;-58
2021/04/16 03:40:28;;;;;;;7.90;4.50;;;3.80;61.90;;;;;;5105601;28;27390;-58
2021/04/16 03:43:34;;;;;;;7.60;4.30;;;3.80;62.00;;;;;;5105733;28;27415;-58
2021/04/16 03:47:02;;;;;;;6.07;4.45;;;3.80;62.00;;;;;;5105783;28;27406;-59
2021/04/16 03:50:53;;;;;;;7.47;5.25;;;3.80;62.10;;;;;;5105472;28;27340;-58
2021/04/16 03:54:27;;;;;;;7.72;4.90;;;3.80;62.20;;;;;;5103821;27;27330;-58
2021/04/16 03:57:41;;;;;;;6.53;4.80;;;3.70;62.20;;;;;;5105392;28;27422;-58
2021/04/16 04:00:29;;;;;;;6.63;4.22;;;3.70;62.30;;;;;;5105731;28;27346;-61
2021/04/16 04:03:42;;;;;;;7.03;4.05;;;3.70;62.30;;;;;;5104682;28;27374;-59
2021/04/16 04:06:53;;;;;;;5.90;3.90;;;3.70;62.30;;;;;;5102784;27;27362;-58
2021/04/16 04:10:06;;;;;;;5.72;3.63;;;3.60;62.10;;;;;;5103110;28;27433;-58
2021/04/16 04:13:28;;;;;;;6.30;3.45;;;3.60;62.20;;;;;;5105420;28;27423;-59
2021/04/16 04:16:49;;;;;;;6.90;3.90;;;3.60;62.10;;;;;;5105477;28;27324;-57
2021/04/16 04:19:55;;;;;;;5.05;4.00;;;3.60;62.20;;;;;;5104269;28;27648;-58
2021/04/16 04:23:01;;;;;;;5.47;3.90;;;3.60;62.20;;;;;;5105039;28;27386;-58
2021/04/16 04:26:29;;;;;;;5.85;3.83;;;3.50;62.30;;;;;;5101147;28;27354;-59
2021/04/16 04:30:35;;;;;;;5.35;3.60;;;3.50;62.20;;;;;;5103893;28;27394;-58
2021/04/16 04:34:06;;;;;;;5.18;3.05;;;3.50;62.00;;;;;;5105192;28;27355;-59
2021/04/16 04:37:33;;;;;;;6.72;3.40;;;3.50;62.10;;;;;;5103011;28;27354;-58
2021/04/16 04:41:23;;;;;;;4.30;3.47;;;3.50;62.20;;;;;;5101617;28;27393;-57
2021/04/16 04:44:15;;;;;;;5.60;3.28;;;3.50;62.30;;;;;;5102616;28;27515;-58
2021/04/16 04:47:39;;;;;;;6.20;3.08;;;3.50;62.20;;;;;;5104937;28;27408;-57
2021/04/16 04:50:52;;;;;;;4.60;3.10;;;3.50;62.40;;;;;;5104936;28;27459;-58
2021/04/16 04:54:11;;;;;;;4.07;3.55;;;3.40;62.60;;;;;;5105123;28;27387;-58
2021/04/16 04:57:28;;;;;;;4.72;3.22;;;3.40;62.70;;;;;;5103930;28;27389;-58
2021/04/16 05:00:42;;;;;;;5.93;3.13;;;3.40;62.80;;;;;;5104757;28;27398;-58
2021/04/16 05:04:10;;;;;;;4.57;3.17;;;3.40;62.80;;;;;;5104798;28;27433;-58
2021/04/16 05:07:59;;;;;;;5.15;3.05;;;3.40;62.80;;;;;;5101081;28;27453;-58
2021/04/16 05:11:27;;;;;;;6.22;3.15;;;3.40;63.00;;;;;;5103883;28;27353;-58
2021/04/16 05:14:58;;;;;;;5.28;3.20;;;3.30;63.00;;;;;;5103842;28;27993;-58
2021/04/16 05:18:09;;;;;;;6.43;3.25;;;3.30;63.10;;;;;;5102656;28;27394;-57
2021/04/16 05:21:28;;;;;;;5.25;3.35;;;3.30;63.30;;;;;;5102583;28;27423;-58
2021/04/16 05:24:56;;;;;;;4.75;2.92;;;3.30;63.50;;;;;;5103794;28;27382;-58
2021/04/16 05:28:41;;;;;;;5.57;3.05;;;3.30;64.00;;;;;;5099966;28;27473;-59
2021/04/16 05:32:07;;;;;;;6.88;2.88;;;3.30;63.80;;;;;;5103751;28;27322;-58
2021/04/16 05:35:09;;;;;;;4.90;3.85;;;3.30;64.00;;;;;;5104448;28;27438;-58
2021/04/16 05:38:10;;;;;;;5.38;3.42;;;3.30;64.20;;;;;;5102998;28;27339;-57
2021/04/16 05:41:25;;;;;;;12.55;3.97;;;3.30;64.20;;;;;;5100013;28;27348;-56
2021/04/16 05:44:40;;;;;;;5.70;3.63;;;3.40;64.50;;;;;;5103500;28;27588;-58
2021/04/16 05:47:45;;;;;;;5.45;3.58;;;3.40;64.50;;;;;;5103731;28;27326;-58
2021/04/16 05:51:00;;;;;;;5.80;3.70;;;3.40;64.60;;;;;;5101339;28;27369;-58
2021/04/16 05:54:05;;;;;;;6.25;4.97;;;3.50;64.70;;;;;;5103142;28;27351;-58
2021/04/16 05:57:20;;;;;;;6.82;4.68;;;3.50;64.80;;;;;;5099515;28;27371;-58
2021/04/16 06:00:25;;;;;;;9.15;5.70;;;3.60;65.00;;;;;;5103019;28;27411;-59
2021/04/16 06:03:27;;;;;;;8.18;5.50;;;3.60;65.90;;;;;;5103567;28;27485;-58
2021/04/16 06:06:43;;;;;;;8.55;5.45;;;3.70;65.20;;;;;;5103903;28;27473;-58
2021/04/16 06:09:49;;;;;;;10.73;6.55;;;3.80;65.30;;;;;;5104273;28;27465;-58
2021/04/16 06:12:51;;;;;;;10.27;6.15;;;3.80;65.40;;;;;;5104533;28;27435;-59
2021/04/16 06:16:06;;;;;;;12.40;6.65;;;3.90;65.40;;;;;;5104514;28;27470;-59
2021/04/16 06:19:34;;;;;;;12.13;7.20;;;4.00;65.60;;;;;;5103781;28;27420;-59
2021/04/16 06:22:55;;;;;;;10.65;6.38;;;4.10;65.80;;;;;;5103823;28;27379;-59
2021/04/16 06:26:10;;;;;;;11.15;6.25;;;4.30;65.70;;;;;;5104420;28;27449;-59
2021/04/16 06:29:26;;;;;;;9.50;6.53;;;4.40;65.60;;;;;;5104068;28;27446;-59
2021/04/16 06:32:28;;;;;;;9.90;6.07;;;4.60;65.70;;;;;;5103903;28;27937;-59
2021/04/16 06:35:35;;;;;;;10.38;6.75;;;4.60;65.80;;;;;;5104224;28;27385;-59
2021/04/16 06:38:43;;;;;;;15.95;9.10;;;4.80;65.80;;;;;;5103700;28;27458;-59
2021/04/16 06:41:46;;;;;;;16.05;7.53;;;5.00;65.50;;;;;;5104086;28;27403;-59
2021/04/16 06:45:02;;;;;;;10.52;7.57;;;5.40;65.10;;;;;;5103260;28;27923;-60
2021/04/16 06:48:07;;;;;;;13.52;6.78;;;5.80;64.10;;;;;;5103472;28;27453;-60
2021/04/16 06:51:13;;;;;;;12.45;6.50;;;6.30;62.50;;;;;;5103590;28;27462;-58
2021/04/16 06:54:21;;;;;;;9.90;4.30;;;6.70;61.90;;;;;;5100963;28;27411;-61
2021/04/16 06:57:48;;;;;;;5.72;3.75;;;6.90;60.00;;;;;;5103285;28;27352;-59
2021/04/16 07:01:03;;;;;;;4.82;3.53;;;7.20;60.80;;;;;;5104186;28;27409;-62
2021/04/16 07:04:20;;;;;;;5.53;4.07;;;7.50;59.70;;;;;;5103968;28;27359;-61
2021/04/16 07:07:28;;;;;;;5.25;3.67;;;7.70;59.30;;;;;;5102862;28;27451;-58
2021/04/16 07:10:52;;;;;;;6.03;3.00;;;8.00;59.60;;;;;;5103542;28;27482;-59
2021/04/16 07:13:57;;;;;;;4.88;3.38;;;8.40;58.30;;;;;;5102777;28;27507;-58
2021/04/16 07:17:02;;;;;;;5.63;2.83;;;8.60;58.10;;;;;;5103356;28;27448;-59
2021/04/16 07:20:19;;;;;;;4.22;3.55;;;9.10;57.30;;;;;;5103032;28;27487;-59
2021/04/16 07:23:25;;;;;;;3.95;2.90;;;9.50;57.00;;;;;;5100426;28;27321;-61
2021/04/16 07:26:41;;;;;;;3.83;2.72;;;9.80;55.30;;;;;;5103104;28;27332;-59
2021/04/16 07:29:41;;;;;;;3.42;2.75;;;9.60;55.30;;;;;;5104024;28;27348;-59
2021/04/16 07:32:32;;;;;;;5.32;3.30;;;9.50;56.00;;;;;;5099858;28;27485;-59
2021/04/16 07:36:26;;;;;;;4.57;3.03;;;9.50;56.40;;;;;;5103444;28;27477;-59
2021/04/16 07:39:20;;;;;;;3.72;2.80;;;9.70;56.80;;;;;;5101278;27;27703;-59
2021/04/16 07:42:47;;;;;;;3.53;2.67;;;10.10;56.00;;;;;;5104061;28;27438;-60
2021/04/16 07:45:53;;;;;;;5.75;2.55;;;10.20;55.30;;;;;;5106921;28;27454;-59
2021/04/16 07:49:12;;;;;;;6.18;3.25;;;10.30;55.00;;;;;;5106986;28;28019;-59
2021/04/16 07:52:27;;;;;;;4.20;2.97;;;10.30;55.80;;;;;;5107017;28;27423;-59
2021/04/16 07:55:26;;;;;;;3.95;2.80;;;10.90;55.40;;;;;;5106244;28;27476;-59
2021/04/16 07:58:21;;;;;;;5.22;3.30;;;11.40;54.30;;;;;;5106908;28;27320;-59
2021/04/16 08:01:24;;;;;;;4.22;3.05;;;11.80;53.30;;;;;;5106658;28;27805;-59
2021/04/16 08:04:16;;;;;;;5.05;3.10;;;12.20;52.30;;;;;;5106567;28;27458;-59
2021/04/16 08:07:52;;;;;;;3.45;3.13;;;12.50;52.80;;;;;;5106327;28;27489;-60
2021/04/16 08:11:01;;;;;;;3.17;2.83;;;13.00;51.70;;;;;;5106342;28;27446;-59
2021/04/16 08:13:52;;;;;;;3.58;2.92;;;13.60;51.60;;;;;;5102582;28;27325;-60
2021/04/16 08:17:21;;;;;;;4.55;3.22;;;13.90;48.60;;;;;;5105907;28;27336;-60
2021/04/16 08:20:24;;;;;;;3.33;3.00;;;14.20;47.20;;;;;;5105007;28;27376;-60
2021/04/16 08:23:52;;;;;;;3.45;2.35;;;14.40;46.40;;;;;;5106592;28;27403;-60
2021/04/16 08:27:09;;;;;;;3.20;2.65;;;14.10;47.00;;;;;;5106469;28;27344;-60
2021/04/16 08:30:22;;;;;;;5.40;2.15;;;13.40;47.50;;;;;;5105879;28;27384;-59
2021/04/16 08:33:34;;;;;;;2.17;1.98;;;12.60;49.20;;;;;;5102820;28;27398;-59
2021/04/16 08:36:35;;;;;;;3.30;2.65;;;11.80;51.00;;;;;;5106075;28;26903;-59
2021/04/16 08:39:44;;;;;;;3.72;2.95;;;11.30;51.50;;;;;;5102087;28;27820;-60
2021/04/16 08:42:47;;;;;;;4.00;2.65;;;10.80;53.20;;;;;;5090327;28;27582;-59
2021/04/16 08:45:52;;;;;;;3.53;2.70;;;10.40;54.70;;;;;;5105657;28;27419;-59
2021/04/16 08:48:58;;;;;;;3.85;2.92;;;10.10;55.60;;;;;;5105229;28;27497;-59
2021/04/16 08:52:10;;;;;;;2.83;2.30;;;9.90;56.40;;;;;;5105317;28;27853;-59
2021/04/16 08:55:12;;;;;;;3.78;2.65;;;9.80;56.60;;;;;;5104944;27;27624;-59
2021/04/16 08:58:22;;;;;;;4.53;3.22;;;9.80;57.10;;;;;;5105945;28;27376;-59
2021/04/16 09:01:38;;;;;;;2.83;2.25;;;9.80;57.90;;;;;;5105505;28;27415;-59
2021/04/16 09:04:46;;;;;;;3.40;2.60;;;9.80;58.20;;;;;;5105553;28;27443;-59
2021/04/16 09:07:38;;;;;;;3.30;2.53;;;9.90;59.10;;;;;;5105547;28;27393;-59
2021/04/16 09:10:28;;;;;;;2.88;2.55;;;10.00;58.40;;;;;;5105581;28;27432;-59
2021/04/16 09:13:46;;;;;;;3.58;2.53;;;10.00;58.40;;;;;;5105182;28;27453;-59
2021/04/16 09:17:28;;;;;;;2.35;2.15;;;10.10;58.50;;;;;;5105322;28;27874;-59
2021/04/16 09:20:55;;;;;;;3.13;2.63;;;10.20;58.50;;;;;;5104618;28;27348;-59
2021/04/16 09:23:50;;;;;;;3.33;2.90;;;10.30;57.70;;;;;;5103512;28;27473;-59
2021/04/16 09:27:15;;;;;;;3.38;2.25;;;10.50;57.90;;;;;;5102983;28;27341;-60
2021/04/16 09:30:13;;;;;;;3.95;2.72;;;10.80;56.70;;;;;;5103563;28;27577;-59
2021/04/16 09:33:36;;;;;;;3.50;2.60;;;11.10;56.50;;;;;;5085919;28;27369;-60
2021/04/16 09:36:33;;;;;;;3.53;2.65;;;11.40;56.60;;;;;;5103583;28;27478;-59
2021/04/16 09:40:00;;;;;;;7.25;2.63;;;11.60;55.70;;;;;;5103285;28;27632;-60
2021/04/16 09:43:09;;;;;;;4.07;2.97;;;11.60;55.50;;;;;;5103346;28;27439;-60
2021/04/16 09:46:35;;;;;;;3.63;2.05;;;11.70;57.60;;;;;;5094663;28;27426;-60
2021/04/16 09:50:07;;;;;;;4.13;3.10;;;11.90;57.20;;;;;;5103353;28;27460;-59
2021/04/16 09:53:32;;;;;;;2.95;2.55;;;12.00;54.10;;;;;;5102479;28;27430;-60
2021/04/16 09:57:04;;;;;;;3.05;2.40;;;12.20;56.00;;;;;;5093399;28;27545;-60
2021/04/16 10:00:31;;;;;;;3.35;2.35;;;12.20;56.40;;;;;;5102654;28;27549;-60
2021/04/16 10:03:46;;;;;;;5.70;2.30;;;12.20;54.70;;;;;;5104700;28;27365;-60
2021/04/16 10:06:51;;;;;;;2.60;2.10;;;12.30;54.00;;;;;;5102523;28;27406;-60
2021/04/16 10:10:14;;;;;;;2.97;2.28;;;12.40;53.30;;;;;;5104317;28;27340;-60
2021/04/16 10:13:22;;;;;;;2.70;2.40;;;12.20;52.20;;;;;;5104291;28;27454;-60
2021/04/16 10:16:48;;;;;;;2.58;2.17;;;12.00;53.00;;;;;;5104882;28;27399;-60
2021/04/16 10:20:23;;;;;;;2.50;1.95;;;11.80;54.20;;;;;;5100633;28;27370;-60
2021/04/16 12:38:59;;;;;;;2.95;2.63;;;11.00;53.50;;;;;;5102848;28;27324;-62
2021/04/16 12:42:26;;;;;;;8.70;2.75;;;10.80;53.50;;;;;;5106347;28;27370;-60
2021/04/16 12:45:31;;;;;;;2.78;2.40;;;10.70;54.70;;;;;;5102164;28;27606;-60
2021/04/16 12:48:35;;;;;;;2.90;2.53;;;10.60;54.50;;;;;;5105926;28;27498;-59
2021/04/16 12:51:50;;;;;;;4.45;3.13;;;10.60;55.20;;;;;;5106307;28;27328;-60
2021/04/16 12:55:18;;;;;;;6.28;3.47;;;10.60;55.00;;;;;;5105451;28;27319;-60
2021/04/16 12:58:06;;;;;;;2.80;2.17;;;10.50;54.00;;;;;;5104255;28;27501;-59
2021/04/16 13:01:21;;;;;;;4.55;2.92;;;10.40;54.50;;;;;;5104993;28;27348;-60
2021/04/16 13:04:49;;;;;;;3.17;2.80;;;10.40;55.20;;;;;;5104910;28;27411;-59
2021/04/16 13:08:15;;;;;;;2.50;2.30;;;10.50;55.10;;;;;;5102453;28;27354;-60
2021/04/16 13:11:27;;;;;;;4.68;3.05;;;10.40;54.80;;;;;;5102414;28;27959;-60
2021/04/16 13:14:13;;;;;;;4.50;2.53;;;10.50;55.70;;;;;;5105101;28;27404;-59
2021/04/16 13:17:19;;;;;;;3.42;3.10;;;10.60;55.70;;;;;;5105559;28;27408;-59
2021/04/16 13:20:26;;;;;;;3.92;3.00;;;10.60;54.40;;;;;;5103809;28;27522;-60
2021/04/16 13:23:31;;;;;;;24.83;5.00;;;10.60;55.20;;;;;;5105619;28;27859;-59
2021/04/16 13:26:36;;;;;;;9.05;3.60;;;10.60;53.30;;;;;;5104667;28;27643;-60
2021/04/16 13:29:41;;;;;;;8.68;3.55;;;10.70;54.30;;;;;;5105304;28;27469;-59
2021/04/16 13:32:33;;;;;;;8.05;3.20;;;10.70;54.80;;;;;;5103594;28;27380;-59
2021/04/16 13:35:54;;;;;;;4.85;2.90;;;10.80;54.80;;;;;;5090753;28;27339;-59
2021/04/16 13:38:59;;;;;;;5.45;2.75;;;10.80;54.10;;;;;;5104471;28;27564;-59
2021/04/16 13:42:05;;;;;;;3.38;2.60;;;10.90;54.60;;;;;;5104327;28;26914;-59
2021/04/16 13:45:11;;;;;;;6.53;2.47;;;10.90;53.70;;;;;;5101900;28;27462;-59
2021/04/16 13:48:16;;;;;;;2.92;2.58;;;11.00;55.00;;;;;;5104562;28;27387;-61
2021/04/16 13:51:22;;;;;;;4.45;2.25;;;11.10;54.50;;;;;;5104611;28;27394;-59
2021/04/16 13:54:27;;;;;;;2.47;2.25;;;11.10;53.70;;;;;;5105085;28;27367;-59
2021/04/16 13:57:32;;;;;;;2.92;2.22;;;11.10;53.20;;;;;;5104381;28;27386;-60
2021/04/16 14:00:39;;;;;;;2.28;1.88;;;11.10;54.00;;;;;;5104751;28;27323;-59
2021/04/16 14:03:32;;;;;;;2.80;2.42;;;11.10;53.60;;;;;;5104583;28;27395;-59
2021/04/16 14:06:22;;;;;;;2.33;2.13;;;11.20;54.00;;;;;;5104646;28;27349;-60
2021/04/16 14:09:10;;;;;;;2.80;2.50;;;11.20;53.20;;;;;;5104706;28;27411;-59
2021/04/16 14:12:03;;;;;;;3.13;2.35;;;11.20;53.40;;;;;;5104678;28;27472;-59
2021/04/16 14:15:09;;;;;;;2.90;2.15;;;11.30;52.90;;;;;;5104888;28;27426;-60
2021/04/16 14:18:24;;;;;;;4.40;2.63;;;11.30;53.00;;;;;;5104596;28;27473;-59
2021/04/16 14:21:38;;;;;;;2.53;2.15;;;11.30;52.90;;;;;;5103618;28;27032;-59
2021/04/16 14:24:54;;;;;;;4.57;2.08;;;11.30;53.40;;;;;;5104745;28;27460;-59
2021/04/16 14:27:59;;;;;;;2.28;1.77;;;11.30;53.20;;;;;;5104013;28;27492;-59
2021/04/16 14:31:04;;;;;;;2.65;2.40;;;11.20;53.10;;;;;;5104544;28;27394;-60
2021/04/16 14:34:15;;;;;;;2.88;2.50;;;11.20;53.50;;;;;;5104387;28;27405;-60
2021/04/16 14:37:21;;;;;;;2.40;2.15;;;11.10;53.20;;;;;;5104286;28;27335;-59
2021/04/16 14:40:27;;;;;;;5.25;2.85;;;11.00;53.60;;;;;;5100878;28;27545;-59
2021/04/16 14:43:55;;;;;;;3.30;2.45;;;10.90;53.00;;;;;;5104528;28;27473;-60
2021/04/16 14:47:26;;;;;;;3.15;2.85;;;10.80;53.90;;;;;;5103562;28;27485;-61
2021/04/16 14:50:12;;;;;;;3.20;2.88;;;10.70;53.30;;;;;;5104146;28;27394;-62
2021/04/16 14:53:26;;;;;;;3.65;2.60;;;10.70;54.00;;;;;;5107056;27;27417;-60
2021/04/16 14:56:54;;;;;;;3.80;2.83;;;10.60;54.40;;;;;;5108013;28;27449;-60
2021/04/16 15:00:24;;;;;;;3.63;2.70;;;10.40;54.20;;;;;;5107671;28;27407;-60
2021/04/16 15:03:51;;;;;;;6.47;2.90;;;10.30;54.50;;;;;;5106036;28;27382;-60
2021/04/16 15:07:20;;;;;;;4.93;3.08;;;10.30;55.10;;;;;;5107705;28;27487;-60
2021/04/16 15:10:28;;;;;;;3.00;2.38;;;10.30;55.00;;;;;;5106401;28;27425;-60
2021/04/16 15:13:55;;;;;;;2.58;2.35;;;10.20;55.00;;;;;;5106007;28;27126;-60
2021/04/16 15:17:05;;;;;;;3.08;2.38;;;10.20;55.70;;;;;;5107219;28;28056;-62
2021/04/16 15:20:29;;;;;;;2.97;2.47;;;10.20;55.40;;;;;;5105379;28;27429;-60
2021/04/16 15:23:35;;;;;;;3.05;2.47;;;10.20;55.80;;;;;;5107118;28;27454;-60
2021/04/16 15:26:40;;;;;;;2.70;2.05;;;10.10;55.90;;;;;;5107163;28;27457;-59
2021/04/16 15:29:50;;;;;;;3.50;2.90;;;10.10;56.40;;;;;;5106245;28;27468;-59
2021/04/16 15:32:55;;;;;;;2.70;2.47;;;10.20;56.20;;;;;;5105845;28;27410;-59
2021/04/16 15:46:30;;;;;;;4.90;2.20;;;10.10;56.20;;;;;;5094864;28;27443;-60
2021/04/16 15:49:36;;;;;;;3.78;2.83;;;10.00;56.20;;;;;;5106705;28;27336;-59
2021/04/16 15:52:42;;;;;;;3.58;2.63;;;9.90;55.90;;;;;;5106510;28;27401;-60
2021/04/16 15:55:47;;;;;;;4.72;2.90;;;9.90;57.30;;;;;;5106713;28;27931;-60
2021/04/16 15:58:54;;;;;;;6.88;3.05;;;9.80;56.40;;;;;;5106838;28;27393;-60
2021/04/16 16:02:01;;;;;;;2.60;2.40;;;9.80;56.20;;;;;;5106704;28;27445;-59
2021/04/16 16:05:07;;;;;;;3.25;2.53;;;9.70;56.70;;;;;;5105750;28;27462;-59
2021/04/16 16:08:13;;;;;;;3.83;2.70;;;9.70;56.20;;;;;;5106182;28;27465;-59
2021/04/16 16:11:26;;;;;;;3.60;2.42;;;9.70;57.00;;;;;;5106777;28;27465;-61
2021/04/16 16:14:32;;;;;;;3.55;2.53;;;9.60;56.30;;;;;;5106822;28;27500;-60
2021/04/16 16:17:39;;;;;;;8.13;2.92;;;9.60;55.80;;;;;;5090705;28;27470;-59
2021/04/16 16:20:45;;;;;;;2.70;2.28;;;9.50;55.70;;;;;;5088316;28;27477;-59
2021/04/16 16:23:51;;;;;;;3.55;2.97;;;9.50;57.40;;;;;;5103294;28;27439;-59
2021/04/16 16:26:58;;;;;;;3.70;2.83;;;9.50;56.90;;;;;;5103082;28;27409;-59
2021/04/16 16:30:03;;;;;;;4.13;3.22;;;9.50;56.50;;;;;;5105688;28;27545;-58
2021/04/16 16:33:08;;;;;;;3.55;3.20;;;9.40;56.10;;;;;;5105735;28;27946;-59
2021/04/16 16:36:14;;;;;;;3.80;3.13;;;9.40;56.90;;;;;;5106008;28;27530;-59
2021/04/16 16:39:19;;;;;;;6.55;3.28;;;9.30;57.00;;;;;;5105969;28;27410;-59
2021/04/16 16:42:27;;;;;;;3.72;3.00;;;9.30;56.90;;;;;;5105745;28;27336;-61
2021/04/16 16:45:19;;;;;;;3.30;2.75;;;9.20;56.70;;;;;;5105413;28;27833;-61
2021/04/16 16:48:25;;;;;;;3.25;2.97;;;9.20;56.30;;;;;;5105947;28;27414;-61
2021/04/16 16:51:31;;;;;;;3.33;2.67;;;9.20;57.10;;;;;;5105914;28;27332;-62
2021/04/16 16:54:15;;;;;;;5.97;2.83;;;9.10;57.60;;;;;;5105579;28;27318;-62
2021/04/16 16:57:20;;;;;;;2.65;2.42;;;9.10;57.40;;;;;;5106177;28;27946;-61
2021/04/16 17:00:46;;;;;;;2.75;2.40;;;9.00;57.80;;;;;;5104710;28;27352;-61
2021/04/16 17:03:52;;;;;;;4.10;3.63;;;9.00;57.70;;;;;;5105594;28;26951;-61
2021/04/16 17:06:55;;;;;;;3.08;2.47;;;9.00;57.90;;;;;;5105538;28;27469;-61
2021/04/16 17:10:09;;;;;;;3.17;2.88;;;9.00;58.20;;;;;;5105555;28;27351;-61
2021/04/16 17:13:22;;;;;;;2.97;2.67;;;9.10;57.60;;;;;;5104690;28;27405;-61
2021/04/16 17:16:33;;;;;;;3.42;2.65;;;9.00;57.60;;;;;;5105564;27;27431;-60
2021/04/16 17:20:00;;;;;;;4.60;2.70;;;9.00;57.00;;;;;;5105164;28;27469;-61
2021/04/16 17:23:27;;;;;;;3.40;2.92;;;9.00;57.70;;;;;;5105622;28;27526;-61
2021/04/16 17:26:58;;;;;;;3.65;2.60;;;8.90;57.50;;;;;;5105475;28;27461;-60
2021/04/16 17:30:15;;;;;;;2.63;2.30;;;8.90;57.00;;;;;;5104745;27;27340;-61
2021/04/16 17:33:15;;;;;;;2.72;2.45;;;8.90;57.60;;;;;;5104741;28;27413;-61
2021/04/16 17:36:43;;;;;;;4.35;2.55;;;8.80;57.50;;;;;;5105379;28;27375;-60
2021/04/16 17:40:27;;;;;;;2.85;2.17;;;8.80;57.60;;;;;;5102688;28;27443;-61
2021/04/16 17:43:39;;;;;;;4.15;3.45;;;8.80;58.00;;;;;;5105397;28;27414;-62
2021/04/16 17:47:07;;;;;;;2.90;2.60;;;8.80;57.20;;;;;;5104993;28;27336;-61
2021/04/16 17:50:26;;;;;;;6.07;4.13;;;8.80;57.40;;;;;;5104761;28;27374;-61
2021/04/16 17:53:57;;;;;;;6.88;4.82;;;8.70;57.60;;;;;;5104290;28;27423;-61
2021/04/16 17:57:25;;;;;;;5.85;4.22;;;8.70;57.40;;;;;;5104373;28;27538;-61
2021/04/16 18:01:22;;;;;;;7.63;3.72;;;8.70;57.70;;;;;;5101482;28;27458;-61
2021/04/16 18:04:49;;;;;;;3.83;3.38;;;8.70;58.00;;;;;;5101505;28;27308;-61
2021/04/16 18:08:24;;;;;;;4.07;3.38;;;8.70;57.70;;;;;;5104701;28;27393;-61
2021/04/16 18:12:00;;;;;;;5.47;3.65;;;8.60;58.00;;;;;;5123392;27;27367;-61
2021/04/16 18:15:35;;;;;;;3.92;3.30;;;8.60;57.90;;;;;;5123445;27;27409;-60
2021/04/16 18:19:25;;;;;;;4.35;3.00;;;8.50;57.90;;;;;;5122764;27;27459;-61
2021/04/16 18:22:53;;;;;;;5.00;2.95;;;8.60;58.80;;;;;;5121515;27;27508;-61
2021/04/16 18:26:49;;;;;;;3.10;2.80;;;8.50;57.90;;;;;;5121219;27;27399;-61
2021/04/16 18:30:24;;;;;;;5.63;3.17;;;8.50;58.00;;;;;;5123431;27;27496;-61
2021/04/16 18:34:12;;;;;;;4.75;3.20;;;8.50;58.30;;;;;;5119943;27;27433;-61
2021/04/16 18:37:26;;;;;;;3.22;2.28;;;8.40;57.90;;;;;;5122678;27;27469;-60
2021/04/16 18:40:51;;;;;;;4.43;3.05;;;8.40;58.20;;;;;;5123004;27;27718;-61
2021/04/16 18:44:18;;;;;;;3.20;2.70;;;8.40;58.30;;;;;;5101298;28;27308;-61
2021/04/16 18:47:46;;;;;;;6.35;3.70;;;8.40;58.20;;;;;;5103489;28;27434;-61
2021/04/16 18:51:13;;;;;;;4.78;3.08;;;8.40;58.40;;;;;;5103480;28;27459;-62
2021/04/16 18:54:41;;;;;;;5.15;3.35;;;8.40;58.30;;;;;;5103467;28;27336;-61
2021/04/16 18:58:08;;;;;;;6.72;3.50;;;8.40;58.30;;;;;;5103399;28;27608;-61
2021/04/16 19:01:36;;;;;;;2.95;2.67;;;8.30;58.60;;;;;;5103411;28;27456;-61
2021/04/16 19:05:04;;;;;;;5.22;3.67;;;8.30;58.50;;;;;;5103318;28;27414;-61
2021/04/16 19:08:31;;;;;;;4.88;3.40;;;8.20;58.60;;;;;;5103200;28;27629;-60
2021/04/16 19:11:59;;;;;;;4.93;3.42;;;8.20;58.90;;;;;;5103017;28;27422;-61
2021/04/16 19:15:27;;;;;;;3.58;2.80;;;8.20;59.10;;;;;;5103073;28;27500;-61
2021/04/16 19:18:53;;;;;;;4.78;3.30;;;8.10;59.10;;;;;;5103533;28;27410;-61
2021/04/16 19:21:48;;;;;;;4.65;3.78;;;8.10;59.10;;;;;;5103015;28;27349;-61
2021/04/16 19:24:56;;;;;;;4.07;3.20;;;8.00;59.20;;;;;;5099882;28;27374;-61
2021/04/16 19:28:23;;;;;;;3.10;2.80;;;8.00;59.10;;;;;;5100329;28;27642;-62